createdAt,value
2022-10-22T00:00:08.746Z,59.51
2022-10-22T00:01:30.421Z,58.38
2022-10-22T00:02:32.284Z,57.98
2022-10-22T00:03:34.439Z,58.70
2022-10-22T00:04:36.348Z,59.39
2022-10-22T00:05:38.007Z,60.68
2022-10-22T00:06:39.773Z,61.89
2022-10-22T00:07:41.751Z,63.29
2022-10-22T00:08:43.838Z,64.72
2022-10-22T00:09:46.058Z,65.04
2022-10-22T00:10:48.044Z,64.44
2022-10-22T00:11:49.815Z,63.42
2022-10-22T00:12:51.470Z,62.41
2022-10-22T00:13:53.142Z,61.54
2022-10-22T00:14:54.890Z,60.92
2022-10-22T00:15:56.603Z,60.24
2022-10-22T00:17:01.145Z,59.56
2022-10-22T00:18:02.927Z,58.63
2022-10-22T00:19:04.568Z,58.01
2022-10-22T00:20:06.928Z,58.47
2022-10-22T00:21:09.435Z,59.47
2022-10-22T00:22:12.265Z,60.35
2022-10-22T00:23:13.890Z,61.23
2022-10-22T00:24:15.657Z,62.67
2022-10-22T00:25:17.497Z,64.15
2022-10-22T00:26:19.366Z,65.11
2022-10-22T00:27:21.095Z,64.82
2022-10-22T00:28:24.037Z,64.08
2022-10-22T00:29:25.835Z,63.43
2022-10-22T00:30:27.498Z,62.39
2022-10-22T00:31:29.119Z,61.58
2022-10-22T00:32:30.777Z,60.94
2022-10-22T00:33:33.179Z,60.35
2022-10-22T00:34:34.908Z,60.09
2022-10-22T00:35:36.549Z,59.58
2022-10-22T00:36:38.173Z,58.90
2022-10-22T00:37:40.066Z,58.20
2022-10-22T00:38:42.614Z,58.31
2022-10-22T00:39:44.244Z,59.26
2022-10-22T00:40:46.403Z,60.55
2022-10-22T00:41:50.376Z,61.69
2022-10-22T00:42:52.057Z,63.03
2022-10-22T00:44:05.456Z,65.33
2022-10-22T00:45:10.023Z,66.21
2022-10-22T00:46:11.693Z,65.91
2022-10-22T00:47:15.049Z,65.10
2022-10-22T00:48:23.476Z,64.04
2022-10-22T00:49:25.121Z,63.22
2022-10-22T00:50:52.985Z,62.76
2022-10-22T00:51:54.662Z,61.90
2022-10-22T00:52:58.354Z,61.46
2022-10-22T00:54:06.773Z,61.11
2022-10-22T00:55:09.968Z,60.84
2022-10-22T00:56:12.455Z,60.61
2022-10-22T00:57:16.230Z,60.38
2022-10-22T00:58:21.242Z,60.09
2022-10-22T00:59:23.338Z,60.20
2022-10-22T01:00:25.322Z,60.08
2022-10-22T01:01:30.151Z,60.01
2022-10-22T01:02:32.073Z,59.92
2022-10-22T01:03:33.944Z,59.81
2022-10-22T01:04:35.585Z,59.74
2022-10-22T01:05:44.159Z,59.53
2022-10-22T01:06:47.309Z,59.51
2022-10-22T01:07:52.784Z,59.11
2022-10-22T01:09:13.285Z,58.64
2022-10-22T01:10:31.438Z,59.00
2022-10-22T01:12:03.048Z,61.13
2022-10-22T01:13:26.079Z,62.44
2022-10-22T01:15:01.470Z,64.79
2022-10-22T01:16:11.878Z,66.10
2022-10-22T01:17:40.535Z,65.52
2022-10-22T01:18:55.858Z,64.34
2022-10-22T01:20:00.245Z,63.35
2022-10-22T01:21:11.837Z,62.73
2022-10-22T01:22:37.881Z,61.95
2022-10-22T01:24:24.179Z,61.26
2022-10-22T01:25:55.260Z,60.60
2022-10-22T01:27:13.330Z,60.17
2022-10-22T01:28:31.541Z,59.78
2022-10-22T01:29:50.298Z,59.47
2022-10-22T01:30:56.494Z,58.43
2022-10-22T01:32:02.894Z,58.39
2022-10-22T01:33:10.227Z,59.51
2022-10-22T01:34:17.066Z,60.71
2022-10-22T01:35:27.781Z,62.16
2022-10-22T01:36:33.060Z,63.48
2022-10-22T01:37:42.869Z,65.28
2022-10-22T01:38:47.523Z,65.68
2022-10-22T01:39:51.903Z,65.11
2022-10-22T01:40:55.582Z,64.29
2022-10-22T01:41:57.961Z,63.48
2022-10-22T01:43:05.617Z,62.77
2022-10-22T01:44:07.277Z,61.90
2022-10-22T01:45:15.344Z,61.42
2022-10-22T01:46:22.778Z,60.79
2022-10-22T01:47:43.149Z,60.38
2022-10-22T01:49:33.106Z,59.95
2022-10-22T01:50:56.050Z,59.53
2022-10-22T01:52:32.034Z,58.56
2022-10-22T01:53:50.931Z,58.67
2022-10-22T01:55:22.480Z,59.96
2022-10-22T01:56:42.557Z,62.00
2022-10-22T01:58:02.001Z,64.24
2022-10-22T01:59:22.087Z,65.46
2022-10-22T02:00:24.499Z,64.98
2022-10-22T02:01:37.873Z,64.08
2022-10-22T02:03:10.691Z,63.19
2022-10-22T02:04:38.566Z,62.19
2022-10-22T02:05:51.980Z,61.25
2022-10-22T02:06:59.533Z,60.75
2022-10-22T02:08:15.732Z,60.27
2022-10-22T02:09:21.948Z,59.87
2022-10-22T02:10:25.756Z,59.51
2022-10-22T02:11:27.708Z,58.87
2022-10-22T02:12:33.833Z,58.14
2022-10-22T02:13:42.945Z,58.53
2022-10-22T02:14:48.037Z,59.72
2022-10-22T02:15:52.999Z,60.89
2022-10-22T02:16:58.861Z,62.63
2022-10-22T02:18:01.623Z,64.51
2022-10-22T02:19:15.782Z,65.30
2022-10-22T02:20:28.536Z,64.89
2022-10-22T02:21:31.709Z,63.94
2022-10-22T02:22:34.542Z,63.19
2022-10-22T02:23:36.792Z,62.32
2022-10-22T02:24:38.650Z,61.57
2022-10-22T02:25:44.339Z,61.04
2022-10-22T02:27:02.471Z,60.52
2022-10-22T02:28:32.418Z,59.99
2022-10-22T02:29:50.715Z,59.62
2022-10-22T02:30:58.785Z,58.98
2022-10-22T02:32:05.238Z,58.21
2022-10-22T02:33:18.000Z,58.76
2022-10-22T02:34:30.115Z,60.02
2022-10-22T02:35:32.417Z,61.31
2022-10-22T02:36:35.629Z,62.01
2022-10-22T02:37:40.139Z,63.80
2022-10-22T02:38:43.036Z,65.22
2022-10-22T02:39:45.750Z,65.27
2022-10-22T02:40:47.551Z,64.56
2022-10-22T02:41:49.424Z,63.68
2022-10-22T02:42:51.520Z,62.63
2022-10-22T02:43:56.677Z,61.94
2022-10-22T02:44:58.383Z,61.15
2022-10-22T02:46:00.094Z,60.57
2022-10-22T02:47:01.829Z,60.03
2022-10-22T02:48:03.909Z,59.70
2022-10-22T02:49:06.181Z,59.13
2022-10-22T02:50:10.253Z,58.25
2022-10-22T02:51:12.377Z,58.25
2022-10-22T02:52:14.232Z,58.69
2022-10-22T02:53:15.860Z,59.75
2022-10-22T02:54:18.052Z,60.79
2022-10-22T02:55:19.687Z,61.88
2022-10-22T02:56:22.173Z,63.07
2022-10-22T02:57:24.028Z,64.91
2022-10-22T02:58:26.026Z,65.96
2022-10-22T02:59:27.663Z,65.90
2022-10-22T03:00:29.578Z,65.27
2022-10-22T03:01:31.289Z,64.29
2022-10-22T03:02:32.996Z,63.52
2022-10-22T03:03:34.840Z,62.91
2022-10-22T03:04:36.488Z,62.32
2022-10-22T03:05:38.122Z,61.90
2022-10-22T03:06:43.694Z,61.41
2022-10-22T03:07:45.343Z,60.92
2022-10-22T03:08:47.243Z,60.46
2022-10-22T03:09:49.042Z,60.30
2022-10-22T03:10:50.757Z,60.01
2022-10-22T03:11:52.598Z,59.93
2022-10-22T03:12:54.562Z,59.69
2022-10-22T03:13:56.256Z,59.38
2022-10-22T03:14:57.920Z,58.59
2022-10-22T03:15:59.538Z,58.33
2022-10-22T03:17:01.738Z,59.04
2022-10-22T03:18:03.434Z,60.10
2022-10-22T03:19:05.106Z,61.30
2022-10-22T03:20:07.373Z,62.73
2022-10-22T03:21:27.614Z,64.61
2022-10-22T03:22:34.742Z,65.29
2022-10-22T03:23:38.429Z,64.78
2022-10-22T03:24:44.651Z,63.95
2022-10-22T03:25:49.746Z,63.04
2022-10-22T03:26:53.102Z,62.27
2022-10-22T03:28:04.636Z,61.85
2022-10-22T03:29:07.090Z,61.15
2022-10-22T03:30:10.788Z,60.65
2022-10-22T03:31:12.501Z,60.19
2022-10-22T03:32:14.201Z,59.84
2022-10-22T03:33:15.838Z,59.36
2022-10-22T03:34:17.668Z,58.58
2022-10-22T03:35:19.290Z,58.18
2022-10-22T03:36:21.001Z,58.50
2022-10-22T03:37:24.900Z,59.59
2022-10-22T03:38:27.099Z,61.04
2022-10-22T03:39:33.594Z,62.37
2022-10-22T03:40:35.485Z,63.62
2022-10-22T03:41:37.316Z,65.05
2022-10-22T03:42:41.500Z,65.02
2022-10-22T03:43:43.276Z,64.37
2022-10-22T03:44:45.164Z,63.40
2022-10-22T03:45:46.929Z,62.47
2022-10-22T03:46:49.004Z,61.91
2022-10-22T03:47:50.689Z,61.06
2022-10-22T03:48:52.576Z,60.56
2022-10-22T03:49:54.259Z,59.98
2022-10-22T03:50:55.905Z,59.59
2022-10-22T03:51:57.539Z,58.87
2022-10-22T03:52:59.672Z,57.99
2022-10-22T03:54:01.659Z,58.12
2022-10-22T03:55:04.217Z,58.88
2022-10-22T03:56:10.390Z,60.04
2022-10-22T03:57:12.091Z,60.53
2022-10-22T03:58:13.696Z,61.75
2022-10-22T03:59:15.531Z,63.29
2022-10-22T04:00:17.761Z,65.22
2022-10-22T04:01:19.477Z,65.59
2022-10-22T04:02:21.659Z,64.91
2022-10-22T04:03:23.270Z,63.94
2022-10-22T04:04:24.938Z,63.00
2022-10-22T04:05:26.627Z,62.08
2022-10-22T04:06:30.327Z,61.32
2022-10-22T04:07:32.010Z,60.50
2022-10-22T04:08:34.521Z,59.98
2022-10-22T04:09:36.413Z,59.39
2022-10-22T04:10:38.045Z,58.47
2022-10-22T04:11:39.704Z,57.97
2022-10-22T04:12:41.335Z,58.36
2022-10-22T04:13:44.022Z,59.31
2022-10-22T04:14:45.647Z,59.95
2022-10-22T04:15:47.545Z,61.30
2022-10-22T04:16:49.743Z,63.05
2022-10-22T04:17:51.344Z,64.51
2022-10-22T04:18:53.176Z,65.01
2022-10-22T04:19:54.807Z,64.67
2022-10-22T04:20:56.434Z,63.90
2022-10-22T04:21:59.516Z,62.91
2022-10-22T04:23:01.176Z,62.18
2022-10-22T04:24:02.799Z,61.43
2022-10-22T04:25:05.523Z,60.66
2022-10-22T04:26:08.243Z,60.08
2022-10-22T04:27:09.952Z,59.84
2022-10-22T04:28:11.630Z,59.02
2022-10-22T04:29:15.992Z,58.12
2022-10-22T04:30:18.309Z,57.95
2022-10-22T04:31:23.974Z,58.73
2022-10-22T04:32:26.900Z,59.67
2022-10-22T04:33:28.549Z,60.83
2022-10-22T04:34:31.374Z,61.48
2022-10-22T04:35:33.075Z,63.66
2022-10-22T04:36:34.864Z,65.28
2022-10-22T04:37:36.615Z,65.73
2022-10-22T04:38:39.286Z,65.17
2022-10-22T04:39:40.957Z,64.39
2022-10-22T04:40:42.762Z,63.12
2022-10-22T04:41:44.810Z,62.09
2022-10-22T04:42:46.508Z,61.42
2022-10-22T04:43:48.382Z,61.00
2022-10-22T04:44:50.257Z,60.26
2022-10-22T04:45:51.945Z,59.77
2022-10-22T04:46:53.618Z,59.04
2022-10-22T04:47:55.368Z,58.02
2022-10-22T04:48:57.354Z,57.86
2022-10-22T04:49:59.045Z,58.56
2022-10-22T04:51:00.924Z,59.52
2022-10-22T04:52:02.621Z,60.94
2022-10-22T04:53:04.283Z,62.12
2022-10-22T04:54:06.130Z,63.41
2022-10-22T04:55:08.240Z,64.84
2022-10-22T04:56:20.952Z,65.00
2022-10-22T04:57:22.800Z,64.25
2022-10-22T04:58:24.448Z,63.19
2022-10-22T04:59:26.134Z,62.07
2022-10-22T05:00:28.039Z,61.19
2022-10-22T05:01:49.918Z,60.53
2022-10-22T05:02:51.834Z,59.96
2022-10-22T05:03:56.536Z,59.11
2022-10-22T05:04:58.134Z,58.01
2022-10-22T05:06:02.796Z,57.97
2022-10-22T05:07:04.447Z,58.75
2022-10-22T05:08:06.288Z,59.89
2022-10-22T05:09:15.109Z,60.94
2022-10-22T05:10:16.914Z,61.56
2022-10-22T05:11:25.313Z,62.57
2022-10-22T05:12:27.006Z,64.07
2022-10-22T05:13:28.725Z,65.18
2022-10-22T05:14:30.395Z,64.97
2022-10-22T05:15:33.572Z,64.13
2022-10-22T05:16:36.118Z,63.14
2022-10-22T05:17:38.572Z,62.24
2022-10-22T05:18:43.577Z,61.31
2022-10-22T05:19:45.233Z,60.46
2022-10-22T05:20:46.968Z,59.64
2022-10-22T05:21:48.651Z,59.38
2022-10-22T05:22:50.304Z,58.42
2022-10-22T05:23:53.376Z,57.57
2022-10-22T05:24:54.997Z,58.03
2022-10-22T05:25:56.670Z,59.00
2022-10-22T05:27:00.318Z,60.14
2022-10-22T05:28:01.960Z,60.68
2022-10-22T05:29:03.632Z,61.30
2022-10-22T05:30:06.109Z,62.39
2022-10-22T05:31:10.501Z,64.27
2022-10-22T05:32:12.161Z,65.65
2022-10-22T05:33:13.773Z,65.47
2022-10-22T05:34:16.302Z,64.69
2022-10-22T05:35:17.938Z,63.17
2022-10-22T05:36:22.183Z,62.04
2022-10-22T05:37:24.088Z,60.98
2022-10-22T05:38:26.269Z,60.35
2022-10-22T05:39:28.036Z,59.82
2022-10-22T05:40:31.156Z,58.95
2022-10-22T05:41:38.157Z,57.78
2022-10-22T05:42:39.984Z,57.90
2022-10-22T05:43:42.110Z,58.68
2022-10-22T05:44:43.832Z,59.78
2022-10-22T05:45:45.442Z,61.04
2022-10-22T05:46:47.072Z,61.96
2022-10-22T05:47:48.877Z,62.29
2022-10-22T05:48:56.326Z,64.04
2022-10-22T05:49:57.971Z,65.62
2022-10-22T05:51:05.620Z,65.42
2022-10-22T05:52:07.312Z,64.67
2022-10-22T05:53:09.987Z,63.52
2022-10-22T05:54:19.968Z,62.35
2022-10-22T05:55:21.608Z,61.42
2022-10-22T05:56:24.670Z,60.83
2022-10-22T05:57:26.315Z,60.27
2022-10-22T05:58:28.033Z,59.39
2022-10-22T05:59:29.963Z,58.33
2022-10-22T06:00:31.939Z,57.67
2022-10-22T06:01:37.417Z,58.09
2022-10-22T06:02:39.399Z,59.07
2022-10-22T06:03:42.061Z,59.97
2022-10-22T06:04:43.681Z,60.92
2022-10-22T06:05:45.323Z,62.08
2022-10-22T06:06:53.129Z,63.27
2022-10-22T06:07:57.572Z,64.84
2022-10-22T06:09:06.992Z,65.22
2022-10-22T06:10:18.110Z,64.65
2022-10-22T06:11:21.751Z,63.53
2022-10-22T06:12:23.495Z,62.27
2022-10-22T06:13:25.258Z,61.46
2022-10-22T06:14:27.950Z,60.68
2022-10-22T06:15:29.762Z,59.83
2022-10-22T06:16:32.176Z,59.29
2022-10-22T06:17:33.822Z,58.17
2022-10-22T06:18:35.607Z,57.57
2022-10-22T06:19:37.291Z,57.96
2022-10-22T06:20:38.930Z,59.02
2022-10-22T06:21:40.714Z,60.29
2022-10-22T06:22:42.559Z,61.33
2022-10-22T06:23:44.863Z,61.91
2022-10-22T06:24:46.570Z,63.26
2022-10-22T06:26:00.683Z,64.98
2022-10-22T06:27:03.003Z,65.36
2022-10-22T06:28:04.834Z,64.64
2022-10-22T06:29:07.566Z,63.82
2022-10-22T06:30:09.684Z,62.50
2022-10-22T06:31:11.422Z,61.76
2022-10-22T06:32:13.104Z,60.93
2022-10-22T06:33:14.763Z,60.40
2022-10-22T06:34:19.054Z,59.73
2022-10-22T06:35:20.801Z,58.88
2022-10-22T06:36:24.148Z,57.91
2022-10-22T06:37:25.913Z,57.62
2022-10-22T06:38:27.574Z,58.21
2022-10-22T06:39:29.307Z,59.56
2022-10-22T06:40:31.046Z,60.68
2022-10-22T06:41:32.748Z,61.67
2022-10-22T06:42:34.407Z,62.78
2022-10-22T06:43:36.146Z,64.12
2022-10-22T06:44:38.089Z,64.95
2022-10-22T06:45:39.914Z,64.81
2022-10-22T06:46:43.528Z,63.84
2022-10-22T06:47:46.718Z,62.87
2022-10-22T06:48:56.691Z,61.82
2022-10-22T06:49:58.380Z,60.74
2022-10-22T06:51:04.480Z,60.15
2022-10-22T06:52:06.324Z,59.66
2022-10-22T06:53:07.969Z,58.81
2022-10-22T06:54:09.964Z,57.63
2022-10-22T06:55:11.686Z,57.34
2022-10-22T06:56:20.194Z,57.88
2022-10-22T06:57:21.852Z,58.72
2022-10-22T06:58:23.621Z,59.79
2022-10-22T06:59:25.540Z,61.00
2022-10-22T07:00:27.400Z,62.47
2022-10-22T07:01:35.294Z,63.78
2022-10-22T07:02:37.031Z,64.88
2022-10-22T07:03:40.384Z,64.94
2022-10-22T07:04:42.181Z,64.39
2022-10-22T07:05:43.836Z,63.24
2022-10-22T07:06:45.496Z,62.46
2022-10-22T07:07:47.126Z,61.64
2022-10-22T07:08:49.705Z,60.79
2022-10-22T07:09:51.764Z,60.21
2022-10-22T07:10:53.674Z,59.68
2022-10-22T07:11:55.348Z,59.16
2022-10-22T07:12:58.248Z,58.06
2022-10-22T07:14:01.008Z,57.76
2022-10-22T07:15:02.678Z,58.53
2022-10-22T07:16:05.865Z,59.46
2022-10-22T07:17:07.510Z,60.34
2022-10-22T07:18:09.163Z,61.40
2022-10-22T07:19:10.847Z,62.81
2022-10-22T07:20:12.871Z,64.30
2022-10-22T07:21:17.112Z,64.86
2022-10-22T07:22:18.753Z,64.46
2022-10-22T07:23:20.452Z,63.75
2022-10-22T07:24:22.109Z,62.77
2022-10-22T07:25:23.890Z,61.34
2022-10-22T07:26:28.481Z,60.51
2022-10-22T07:27:30.314Z,59.83
2022-10-22T07:28:33.465Z,59.18
2022-10-22T07:29:35.088Z,58.18
2022-10-22T07:30:38.324Z,57.58
2022-10-22T07:31:39.970Z,57.98
2022-10-22T07:32:41.665Z,59.14
2022-10-22T07:33:43.886Z,60.25
2022-10-22T07:34:45.507Z,60.81
2022-10-22T07:35:47.304Z,61.87
2022-10-22T07:36:49.245Z,63.07
2022-10-22T07:37:50.952Z,64.54
2022-10-22T07:38:58.358Z,64.94
2022-10-22T07:40:02.941Z,64.32
2022-10-22T07:41:06.126Z,63.42
2022-10-22T07:42:07.771Z,62.17
2022-10-22T07:43:09.413Z,61.13
2022-10-22T07:44:11.122Z,60.55
2022-10-22T07:45:12.840Z,59.98
2022-10-22T07:46:14.808Z,59.29
2022-10-22T07:47:16.470Z,58.17
2022-10-22T07:48:18.673Z,57.47
2022-10-22T07:49:20.297Z,58.07
2022-10-22T07:50:22.148Z,58.82
2022-10-22T07:51:24.238Z,59.99
2022-10-22T07:52:25.947Z,60.88
2022-10-22T07:53:27.620Z,61.93
2022-10-22T07:54:29.343Z,62.70
2022-10-22T07:55:31.270Z,64.09
2022-10-22T07:56:33.104Z,65.24
2022-10-22T07:57:35.236Z,65.17
2022-10-22T07:58:37.241Z,64.41
2022-10-22T07:59:38.914Z,63.11
2022-10-22T08:00:40.935Z,62.14
2022-10-22T08:01:42.784Z,61.39
2022-10-22T08:02:44.549Z,60.59
2022-10-22T08:03:46.197Z,59.72
2022-10-22T08:04:47.861Z,58.88
2022-10-22T08:05:49.885Z,57.95
2022-10-22T08:06:51.623Z,58.03
2022-10-22T08:07:53.253Z,58.64
2022-10-22T08:08:54.984Z,59.58
2022-10-22T08:09:56.772Z,60.47
2022-10-22T08:11:01.001Z,61.76
2022-10-22T08:12:02.916Z,63.18
2022-10-22T08:13:06.671Z,64.33
2022-10-22T08:14:08.341Z,64.67
2022-10-22T08:15:10.287Z,64.02
2022-10-22T08:16:12.038Z,63.01
2022-10-22T08:17:13.706Z,62.32
2022-10-22T08:18:15.784Z,61.65
2022-10-22T08:19:18.996Z,60.80
2022-10-22T08:20:20.800Z,60.12
2022-10-22T08:21:22.527Z,59.64
2022-10-22T08:22:24.307Z,59.01
2022-10-22T08:23:28.665Z,57.95
2022-10-22T08:24:30.526Z,57.93
2022-10-22T08:25:33.367Z,58.65
2022-10-22T08:26:34.994Z,59.87
2022-10-22T08:27:36.914Z,60.81
2022-10-22T08:28:38.667Z,62.03
2022-10-22T08:29:40.392Z,63.21
2022-10-22T08:30:42.789Z,64.65
2022-10-22T08:31:44.436Z,65.05
2022-10-22T08:32:46.160Z,64.36
2022-10-22T08:33:47.883Z,63.63
2022-10-22T08:34:49.910Z,62.67
2022-10-22T08:35:52.655Z,61.74
2022-10-22T08:36:54.626Z,60.92
2022-10-22T08:37:56.884Z,60.32
2022-10-22T08:38:58.564Z,59.88
2022-10-22T08:40:00.254Z,59.39
2022-10-22T08:41:13.124Z,58.37
2022-10-22T08:42:37.059Z,57.83
2022-10-22T08:43:41.562Z,59.07
2022-10-22T08:44:50.382Z,60.30
2022-10-22T08:46:22.469Z,61.56
2022-10-22T08:47:44.417Z,63.06
2022-10-22T08:49:00.444Z,64.62
2022-10-22T08:50:02.684Z,64.31
2022-10-22T08:51:04.721Z,63.38
2022-10-22T08:52:13.844Z,62.50
2022-10-22T08:53:26.003Z,61.37
2022-10-22T08:54:58.281Z,60.55
2022-10-22T08:56:00.051Z,59.82
2022-10-22T08:57:33.037Z,59.20
2022-10-22T08:58:50.040Z,57.76
2022-10-22T09:00:06.505Z,58.42
2022-10-22T09:01:19.968Z,59.72
2022-10-22T09:02:38.718Z,60.61
2022-10-22T09:03:52.533Z,62.26
2022-10-22T09:05:11.620Z,64.07
2022-10-22T09:06:32.172Z,65.06
2022-10-22T09:07:33.845Z,64.34
2022-10-22T09:08:38.042Z,63.32
2022-10-22T09:09:47.797Z,62.30
2022-10-22T09:11:06.481Z,61.45
2022-10-22T09:12:20.161Z,60.43
2022-10-22T09:13:24.036Z,59.88
2022-10-22T09:14:26.774Z,59.04
2022-10-22T09:15:28.572Z,58.02
2022-10-22T09:16:36.022Z,57.82
2022-10-22T09:18:19.622Z,58.56
2022-10-22T09:19:32.542Z,60.63
2022-10-22T09:21:09.556Z,61.38
2022-10-22T09:22:23.568Z,62.28
2022-10-22T09:23:38.466Z,64.43
2022-10-22T09:24:46.638Z,65.35
2022-10-22T09:25:51.265Z,64.81
2022-10-22T09:26:53.146Z,63.75
2022-10-22T09:27:58.628Z,62.59
2022-10-22T09:29:02.140Z,61.60
2022-10-22T09:30:04.295Z,60.73
2022-10-22T09:31:14.350Z,60.15
2022-10-22T09:32:16.438Z,59.43
2022-10-22T09:33:26.928Z,58.43
2022-10-22T09:34:30.015Z,57.62
2022-10-22T09:35:36.096Z,58.07
2022-10-22T09:36:38.035Z,58.68
2022-10-22T09:37:54.495Z,59.63
2022-10-22T09:38:57.251Z,61.22
2022-10-22T09:40:05.694Z,62.40
2022-10-22T09:41:09.118Z,64.29
2022-10-22T09:42:17.446Z,65.12
2022-10-22T09:43:19.989Z,64.80
2022-10-22T09:44:21.931Z,63.94
2022-10-22T09:45:25.868Z,62.95
2022-10-22T09:46:29.961Z,62.10
2022-10-22T09:48:00.628Z,61.22
2022-10-22T09:49:12.055Z,60.12
2022-10-22T09:50:27.406Z,59.41
2022-10-22T09:51:56.662Z,58.39
2022-10-22T09:53:19.012Z,57.93
2022-10-22T09:54:26.169Z,59.25
2022-10-22T09:55:28.483Z,60.51
2022-10-22T09:56:42.101Z,61.66
2022-10-22T09:57:44.611Z,62.73
2022-10-22T09:58:51.187Z,63.92
2022-10-22T09:59:57.481Z,64.62
2022-10-22T10:01:01.272Z,64.28
2022-10-22T10:02:20.204Z,63.47
2022-10-22T10:03:33.310Z,62.29
2022-10-22T10:04:41.467Z,61.23
2022-10-22T10:05:44.117Z,60.31
2022-10-22T10:06:45.818Z,59.75
2022-10-22T10:07:48.165Z,59.22
2022-10-22T10:08:50.249Z,58.16
2022-10-22T10:09:54.240Z,57.84
2022-10-22T10:11:10.791Z,58.38
2022-10-22T10:12:32.667Z,59.55
2022-10-22T10:13:43.352Z,61.09
2022-10-22T10:15:01.184Z,62.15
2022-10-22T10:16:24.737Z,63.49
2022-10-22T10:17:40.411Z,65.30
2022-10-22T10:19:02.589Z,65.02
2022-10-22T10:20:41.633Z,63.83
2022-10-22T10:22:05.386Z,62.40
2022-10-22T10:23:48.653Z,61.12
2022-10-22T10:25:19.868Z,60.07
2022-10-22T10:26:48.729Z,59.55
2022-10-22T10:28:09.706Z,58.50
2022-10-22T10:29:42.773Z,57.74
2022-10-22T10:30:59.126Z,58.92
2022-10-22T10:32:19.889Z,60.28
2022-10-22T10:33:49.102Z,61.88
2022-10-22T10:35:17.071Z,63.65
2022-10-22T10:36:29.952Z,65.42
2022-10-22T10:37:46.477Z,65.19
2022-10-22T10:39:11.243Z,64.26
2022-10-22T10:40:31.775Z,63.09
2022-10-22T10:41:51.468Z,62.10
2022-10-22T10:43:18.283Z,61.23
2022-10-22T10:44:29.437Z,60.40
2022-10-22T10:45:55.808Z,59.81
2022-10-22T10:47:35.715Z,59.21
2022-10-22T10:48:46.451Z,58.19
2022-10-22T10:49:55.062Z,58.76
2022-10-22T10:51:03.084Z,60.02
2022-10-22T10:52:26.314Z,61.11
2022-10-22T10:54:00.412Z,62.33
2022-10-22T10:55:22.674Z,64.48
2022-10-22T10:56:41.409Z,65.16
2022-10-22T10:58:10.794Z,64.37
2022-10-22T10:59:19.001Z,63.21
2022-10-22T11:00:22.414Z,62.19
2022-10-22T11:01:50.973Z,61.71
2022-10-22T11:03:32.156Z,60.94
2022-10-22T11:05:03.513Z,60.11
2022-10-22T11:06:14.677Z,59.79
2022-10-22T11:07:35.107Z,59.43
2022-10-22T11:09:06.655Z,58.34
2022-10-22T11:10:24.795Z,58.58
2022-10-22T11:11:48.843Z,60.02
2022-10-22T11:12:58.238Z,61.72
2022-10-22T11:14:13.916Z,62.93
2022-10-22T11:15:28.556Z,64.75
2022-10-22T11:16:43.401Z,65.10
2022-10-22T11:17:48.575Z,64.33
2022-10-22T11:19:13.001Z,63.36
2022-10-22T11:20:25.549Z,62.17
2022-10-22T11:21:35.307Z,61.41
2022-10-22T11:23:18.846Z,60.67
2022-10-22T11:24:35.732Z,59.96
2022-10-22T11:25:47.276Z,59.67
2022-10-22T11:26:56.306Z,59.30
2022-10-22T11:28:11.250Z,58.26
2022-10-22T11:29:22.525Z,58.38
2022-10-22T11:30:28.634Z,59.52
2022-10-22T11:31:32.661Z,61.00
2022-10-22T11:32:35.530Z,61.87
2022-10-22T11:33:57.335Z,63.07
2022-10-22T11:35:14.673Z,65.13
2022-10-22T11:36:23.113Z,65.03
2022-10-22T11:37:33.007Z,64.18
2022-10-22T11:38:36.440Z,63.29
2022-10-22T11:39:45.170Z,62.46
2022-10-22T11:41:10.779Z,61.74
2022-10-22T11:42:21.425Z,61.00
2022-10-22T11:43:33.224Z,60.61
2022-10-22T11:44:58.762Z,60.04
2022-10-22T11:46:29.987Z,59.55
2022-10-22T11:48:09.789Z,58.84
2022-10-22T11:49:14.187Z,58.24
2022-10-22T11:50:57.592Z,58.84
2022-10-22T11:52:42.349Z,60.75
2022-10-22T11:53:44.006Z,62.41
2022-10-22T11:54:45.699Z,64.45
2022-10-22T11:55:51.675Z,65.41
2022-10-22T11:57:16.218Z,65.09
2022-10-22T11:58:44.781Z,63.87
2022-10-22T11:59:58.279Z,62.60
2022-10-22T12:01:02.623Z,61.63
2022-10-22T12:02:29.111Z,60.99
2022-10-22T12:03:33.523Z,60.17
2022-10-22T12:04:42.694Z,59.68
2022-10-22T12:05:46.447Z,59.07
2022-10-22T12:07:00.658Z,58.17
2022-10-22T12:08:20.690Z,58.35
2022-10-22T12:09:26.120Z,59.47
2022-10-22T12:10:34.874Z,60.82
2022-10-22T12:11:47.699Z,61.83
2022-10-22T12:12:57.712Z,62.65
2022-10-22T12:14:29.559Z,64.33
2022-10-22T12:15:31.818Z,65.30
2022-10-22T12:16:54.516Z,64.74
2022-10-22T12:18:05.503Z,63.42
2022-10-22T12:19:34.619Z,62.29
2022-10-22T12:20:36.311Z,61.51
2022-10-22T12:21:41.623Z,60.80
2022-10-22T12:22:44.097Z,60.27
2022-10-22T12:23:46.803Z,60.08
2022-10-22T12:24:54.039Z,59.80
2022-10-22T12:25:55.755Z,59.40
2022-10-22T12:26:57.907Z,58.71
2022-10-22T12:28:00.944Z,58.39
2022-10-22T12:29:10.830Z,58.88
2022-10-22T12:30:22.402Z,59.72
2022-10-22T12:31:24.160Z,61.45
2022-10-22T12:32:37.728Z,63.02
2022-10-22T12:33:39.491Z,65.25
2022-10-22T12:35:55.326Z,65.24
2022-10-22T12:36:57.013Z,64.52
2022-10-22T12:38:02.198Z,63.89
2022-10-22T12:39:18.768Z,62.94
2022-10-22T12:40:25.105Z,62.38
2022-10-22T12:41:32.761Z,61.77
2022-10-22T12:42:35.091Z,61.32
2022-10-22T12:43:39.501Z,61.00
2022-10-22T12:44:41.483Z,60.62
2022-10-22T12:45:47.201Z,60.23
2022-10-22T12:46:53.182Z,59.98
2022-10-22T12:48:01.827Z,59.75
2022-10-22T12:49:11.597Z,59.65
2022-10-22T12:50:25.342Z,59.50
2022-10-22T12:51:28.417Z,58.71
2022-10-22T12:52:31.105Z,58.40
2022-10-22T12:53:38.023Z,59.08
2022-10-22T12:54:40.696Z,60.22
2022-10-22T12:55:47.326Z,61.87
2022-10-22T12:56:51.521Z,63.50
2022-10-22T12:57:53.411Z,65.13
2022-10-22T12:59:16.466Z,65.44
2022-10-22T13:00:21.401Z,64.73
2022-10-22T13:01:27.982Z,63.82
2022-10-22T13:02:29.916Z,63.10
2022-10-22T13:03:40.296Z,62.51
2022-10-22T13:04:42.050Z,61.88
2022-10-22T13:05:43.714Z,61.39
2022-10-22T13:06:48.772Z,60.94
2022-10-22T13:07:53.664Z,60.62
2022-10-22T13:09:14.849Z,60.51
2022-10-22T13:10:34.216Z,60.17
2022-10-22T13:11:59.194Z,59.81
2022-10-22T13:13:06.748Z,59.59
2022-10-22T13:14:34.639Z,59.35
2022-10-22T13:15:39.079Z,58.60
2022-10-22T13:16:40.748Z,58.84
2022-10-22T13:17:42.812Z,60.00
2022-10-22T13:18:46.701Z,61.18
2022-10-22T13:20:05.468Z,62.67
2022-10-22T13:21:35.440Z,64.72
2022-10-22T13:22:40.590Z,65.10
2022-10-22T13:23:56.460Z,64.50
2022-10-22T13:25:13.608Z,63.45
2022-10-22T13:26:18.192Z,62.49
2022-10-22T13:27:20.406Z,61.93
2022-10-22T13:28:24.592Z,61.49
2022-10-22T13:29:26.492Z,61.01
2022-10-22T13:30:38.023Z,60.70
2022-10-22T13:31:47.162Z,60.34
2022-10-22T13:32:51.926Z,60.09
2022-10-22T13:34:02.474Z,59.84
2022-10-22T13:35:06.909Z,59.70
2022-10-22T13:36:15.056Z,59.50
2022-10-22T13:37:16.691Z,59.11
2022-10-22T13:38:20.578Z,58.52
2022-10-22T13:39:24.772Z,59.02
2022-10-22T13:40:27.395Z,60.04
2022-10-22T13:41:32.382Z,60.93
2022-10-22T13:42:34.209Z,62.22
2022-10-22T13:43:35.963Z,64.06
2022-10-22T13:44:37.605Z,65.36
2022-10-22T13:45:40.034Z,65.47
2022-10-22T13:46:42.880Z,64.92
2022-10-22T13:47:50.851Z,64.13
2022-10-22T13:48:55.718Z,63.43
2022-10-22T13:50:02.675Z,62.61
2022-10-22T13:51:07.633Z,61.95
2022-10-22T13:52:27.598Z,61.54
2022-10-22T13:53:31.372Z,61.07
2022-10-22T13:54:33.864Z,60.71
2022-10-22T13:55:35.670Z,60.62
2022-10-22T13:56:37.354Z,60.28
2022-10-22T13:57:39.080Z,60.07
2022-10-22T13:58:41.245Z,59.86
2022-10-22T13:59:42.937Z,59.66
2022-10-22T14:00:49.103Z,59.47
2022-10-22T14:01:52.385Z,59.00
2022-10-22T14:02:58.723Z,58.60
2022-10-22T14:04:04.492Z,59.35
2022-10-22T14:05:09.406Z,60.19
2022-10-22T14:06:15.467Z,61.59
2022-10-22T14:07:17.741Z,63.42
2022-10-22T14:08:22.318Z,64.90
2022-10-22T14:09:24.011Z,65.22
2022-10-22T14:10:26.243Z,64.78
2022-10-22T14:11:28.341Z,64.02
2022-10-22T14:12:30.047Z,63.20
2022-10-22T14:13:31.766Z,62.50
2022-10-22T14:14:33.468Z,61.95
2022-10-22T14:15:35.296Z,61.45
2022-10-22T14:16:37.814Z,61.07
2022-10-22T14:17:43.100Z,60.70
2022-10-22T14:18:45.539Z,60.42
2022-10-22T14:19:49.915Z,60.20
2022-10-22T14:20:56.399Z,59.88
2022-10-22T14:21:58.575Z,59.71
2022-10-22T14:23:21.244Z,59.52
2022-10-22T14:24:23.098Z,59.14
2022-10-22T14:25:26.218Z,58.57